< < Back
Terminal Aerodrome Forecast


Current Version              Previous Versions:   1  2  3  4  5  6  7  8  9  

Terminal Aerodrome Forecast

013
FTUS42 KJAX 300500 RRA
TAFSSI
TAF
KSSI 300550Z 3006/3106 VRB03KT P6SM FEW070 FEW250
     FM301500 07006KT P6SM FEW060 FEW250
     FM301800 09010KT P6SM SCT060
     FM310100 07006KT P6SM FEW070=

Latest METAR

740
SAUS70 KWBC 301700 RRC
MTRSSI
METAR KSSI 301653Z AUTO 14008KT 10SM CLR 31/21 A2997 RMK AO2 SLP148
T03110206


USA.gov is the U.S. government's official web portal to all federal, state and local government web resources and services.